Track Уфнаровский Пётр

Time Latitude Longitude Accuracy (66% radius in meters) Altitude (meters) Speed (km/hour) Bearing (degrees) Battery (%) GPS flag
09:47:28 59.740005 30.387813 20 0.5 2.5262565612793 48.840000152588 91 1 delete
09:47:22 59.739997 30.387800 20 5.8 4.0379958152771 38.630001068115 91 1 delete
09:47:17 59.739912 30.387738 20 9.5 4.2953567504883 32.369998931885 91 1 delete
09:47:06 59.739765 30.387738 20 15.3 2.9215633869171 211.69000244141 91 1 delete
09:47:05 59.739780 30.387747 20 15.7 3.5191557407379 210.41000366211 91 1 delete
09:46:54 59.739885 30.387737 20 18 0 22.409999847412 91 1 delete
09:46:43 59.739812 30.387812 20 21.8 0 46.009998321533 91 1 delete
09:46:38 59.739812 30.387845 20 23.4 2.8752384185791 79.5 91 1 delete
09:46:33 59.739803 30.387785 20 24.8 0 92.389999389648 91 1 delete
09:46:17 59.739775 30.387605 20 26.6 0 147.44999694824 91 1 delete
09:46:07 59.739798 30.387690 20 30 0 79.089996337891 91 1 delete
09:45:56 59.739810 30.387653 20 33.9 0 82.220001220703 91 1 delete
09:45:45 59.739810 30.387627 20 36.4 0 61.869998931885 91 1 delete
09:45:33 59.739787 30.387612 20 38.2 0 75.150001525879 91 1 delete
09:45:22 59.739822 30.387655 20 39.8 1.8066749572754 64.690002441406 91 1 delete
09:45:11 59.739785 30.387600 20 41.7 0 87.230003356934 91 1 delete
09:45:00 59.739805 30.387690 20 43.2 0 73.669998168945 91 1 delete
09:44:48 59.739808 30.387658 20 43.8 0 191.4700012207 91 1 delete
09:44:36 59.739810 30.387852 20 44.5 0 191.4700012207 91 1 delete
09:44:28 59.739830 30.387858 20 44.5 0 191.4700012207 91 1 delete
09:44:25 59.739910 30.387957 20 44.5 0 191.4700012207 91 1 delete
09:44:16 59.739938 30.388107 20 44.4 1.093269944191 145.2799987793 91 1 delete
09:44:12 59.739968 30.388062 20 44.4 1.1220943927765 145.49000549316 91 1 delete
09:44:06 59.740022 30.388010 20 44.4 0 165.24000549316 91 1 delete
09:44:04 59.740118 30.388017 20 44.2 0 165.24000549316 91 1 delete
09:44:00 59.740145 30.387822 20 38.6 0 165.24000549316 91 1 delete
09:43:49 59.740145 30.387822 20 38.6 0 165.24000549316 91 1 delete
09:43:46 59.740112 30.387763 20 23.9 0 165.24000549316 91 1 delete
10:43:38 59.740423 30.387948 20 53.1 0 158.88000488281 91 0 delete
09:43:24 59.740413 30.387948 20 53.3 0 165.24000549316 91 1 delete
09:43:15 59.740413 30.387948 20 53.3 0 165.24000549316 91 1 delete
09:43:01 59.740413 30.387948 20 53.3 0 165.24000549316 91 1 delete
09:42:50 59.740413 30.387948 20 53.3 0 157.2799987793 91 1 delete
09:42:47 59.740423 30.387948 20 53.1 0 158.88000488281 91 1 delete
09:42:39 59.740515 30.387950 20 51.3 2.2730133533478 172.52000427246 91 1 delete
09:42:29 59.740575 30.388085 20 49 0 263.55999755859 91 1 delete
09:42:28 59.740577 30.388103 20 48.8 0 261.2200012207 91 1 delete
09:42:22 59.740592 30.388277 20 47.9 0 276.85000610352 91 1 delete
09:42:17 59.740582 30.388453 20 47.4 0 275.26000976562 91 1 delete
09:42:16 59.740582 30.388477 20 47.3 0 287.10000610352 91 1 delete
09:42:09 59.740583 30.388658 20 46.5 2.0465354919434 277.36999511719 91 1 delete
09:42:05 59.740582 30.388788 20 46 1.7124807834625 268.86999511719 91 1 delete
09:42:03 59.740583 30.388853 20 45.6 1.7613794803619 256.7200012207 91 1 delete
09:41:57 59.740603 30.389037 20 44.9 1.6033596992493 276.86999511719 91 1 delete
09:41:53 59.740605 30.389137 20 43.8 1.6939508914948 277.13000488281 91 1 delete
09:41:50 59.740598 30.389220 20 43.1 1.5951241254807 272.98001098633 91 1 delete
09:41:43 59.740605 30.389427 20 41.7 1.6002713441849 290.91000366211 91 1 delete
09:41:41 59.740605 30.389500 20 41.4 0 272.54000854492 91 1 delete
09:41:36 59.740607 30.389618 20 40.7 1.9610916376114 266.32000732422 91 1 delete
09:41:31 59.740607 30.389798 20 40.6 1.5699027776718 269.39999389648 91 1 delete